createdAt,value
2017-11-24T00:01:10.391Z,8.77
2017-11-24T00:03:37.887Z,5.57
2017-11-24T00:06:05.345Z,13.50
2017-11-24T00:08:32.802Z,5.90
2017-11-24T00:11:00.307Z,7.90
2017-11-24T00:13:27.758Z,6.13
2017-11-24T00:15:55.222Z,8.67
2017-11-24T00:18:22.675Z,9.57
2017-11-24T00:20:50.152Z,6.30
2017-11-24T00:23:18.406Z,4.33
2017-11-24T00:25:45.867Z,5.57
2017-11-24T00:28:13.433Z,6.73
2017-11-24T00:30:40.899Z,18.03
2017-11-24T00:33:08.352Z,5.07
2017-11-24T00:35:35.838Z,11.40
2017-11-24T00:38:03.309Z,4.60
2017-11-24T00:40:30.820Z,8.47
2017-11-24T00:42:58.341Z,5.80
2017-11-24T00:45:25.815Z,9.27
2017-11-24T00:47:53.384Z,16.53
2017-11-24T00:50:20.838Z,6.10
2017-11-24T00:52:48.302Z,8.77
2017-11-24T00:55:15.761Z,5.73
2017-11-24T00:57:44.137Z,5.87
2017-11-24T01:00:11.625Z,7.67
2017-11-24T01:02:39.852Z,8.60
2017-11-24T01:05:07.306Z,8.40
2017-11-24T01:07:34.782Z,7.43
2017-11-24T01:10:02.250Z,5.87
2017-11-24T01:12:30.483Z,4.80
2017-11-24T01:14:57.937Z,10.13
2017-11-24T01:17:25.414Z,8.53
2017-11-24T01:19:52.882Z,10.00
2017-11-24T01:22:20.342Z,7.90
2017-11-24T01:24:47.811Z,7.10
2017-11-24T01:27:15.283Z,5.80
2017-11-24T01:29:43.538Z,7.13
2017-11-24T01:34:45.374Z,4.33
2017-11-24T01:37:12.826Z,7.30
2017-11-24T01:39:40.286Z,6.57
2017-11-24T01:42:07.745Z,7.13
2017-11-24T01:44:35.215Z,21.37
2017-11-24T01:47:02.672Z,7.70
2017-11-24T01:49:30.251Z,6.53
2017-11-24T01:51:57.712Z,5.27
2017-11-24T01:54:25.270Z,14.63
2017-11-24T01:56:52.741Z,6.67
2017-11-24T01:59:21.003Z,10.53
2017-11-24T02:01:48.552Z,4.57
2017-11-24T02:04:16.011Z,4.70
2017-11-24T02:06:43.568Z,4.53
2017-11-24T02:09:11.026Z,3.60
2017-11-24T02:11:38.495Z,5.23
2017-11-24T02:14:06.723Z,8.70
2017-11-24T02:16:34.190Z,10.70
2017-11-24T02:19:01.650Z,7.60
2017-11-24T02:21:29.131Z,7.97
2017-11-24T02:23:56.688Z,5.37
2017-11-24T02:26:24.166Z,7.77
2017-11-24T02:28:52.418Z,6.53
2017-11-24T02:31:19.874Z,7.00
2017-11-24T02:33:47.352Z,5.60
2017-11-24T02:36:15.577Z,6.43
2017-11-24T02:38:43.065Z,5.93
2017-11-24T02:41:10.539Z,4.27
2017-11-24T02:43:38.769Z,9.63
2017-11-24T02:46:06.244Z,6.60
2017-11-24T02:48:33.802Z,9.80
2017-11-24T02:51:01.270Z,7.93
2017-11-24T02:53:28.813Z,7.23
2017-11-24T02:55:56.382Z,4.03
2017-11-24T02:58:23.851Z,5.60
2017-11-24T03:00:52.118Z,7.50
2017-11-24T03:03:19.676Z,4.90
2017-11-24T03:05:47.190Z,6.70
2017-11-24T03:08:14.709Z,7.10
2017-11-24T03:10:42.955Z,5.73
2017-11-24T03:13:10.412Z,5.67
2017-11-24T03:15:37.894Z,5.77
2017-11-24T03:18:05.397Z,13.43
2017-11-24T03:20:32.902Z,5.50
2017-11-24T03:23:00.359Z,4.27
2017-11-24T03:25:27.909Z,10.17
2017-11-24T03:27:56.884Z,6.47
2017-11-24T03:30:24.380Z,8.33
2017-11-24T03:32:52.615Z,5.97
2017-11-24T03:35:20.094Z,6.80
2017-11-24T03:37:49.142Z,4.93
2017-11-24T03:40:16.638Z,5.70
2017-11-24T03:42:44.107Z,7.07
2017-11-24T03:45:11.579Z,5.47
2017-11-24T03:47:39.834Z,6.20
2017-11-24T03:50:07.391Z,5.70
2017-11-24T03:52:34.878Z,8.07
2017-11-24T03:55:03.111Z,4.53
2017-11-24T03:57:30.682Z,6.20
2017-11-24T03:59:58.243Z,6.50
2017-11-24T04:02:25.713Z,6.60
2017-11-24T04:04:53.947Z,6.03
2017-11-24T04:07:21.427Z,10.60
2017-11-24T04:09:49.665Z,7.83
2017-11-24T04:12:17.136Z,5.27
2017-11-24T04:14:44.617Z,13.00
2017-11-24T04:17:12.080Z,5.40
2017-11-24T04:19:39.546Z,7.67
2017-11-24T04:22:07.787Z,4.70
2017-11-24T04:24:35.241Z,7.67
2017-11-24T04:27:02.707Z,8.00
2017-11-24T04:29:30.282Z,8.07
2017-11-24T04:31:57.840Z,6.57
2017-11-24T04:34:25.415Z,11.50
2017-11-24T04:36:53.673Z,8.88
2017-11-24T04:39:21.143Z,9.70
2017-11-24T04:41:49.373Z,7.30
2017-11-24T04:44:16.843Z,5.47
2017-11-24T04:46:44.310Z,8.53
2017-11-24T04:49:11.874Z,7.30
2017-11-24T04:51:39.435Z,10.27
2017-11-24T04:54:06.910Z,7.10
2017-11-24T04:56:35.140Z,5.73
2017-11-24T04:59:02.622Z,7.62
2017-11-24T05:01:30.179Z,4.93
2017-11-24T05:03:57.741Z,7.00
2017-11-24T05:06:25.204Z,7.43
2017-11-24T05:08:53.451Z,24.12
2017-11-24T05:11:20.923Z,7.57
2017-11-24T05:13:48.648Z,10.68
2017-11-24T05:16:16.151Z,9.25
2017-11-24T05:18:43.706Z,8.10
2017-11-24T05:21:11.634Z,8.40
2017-11-24T05:23:39.141Z,9.10
2017-11-24T05:26:07.415Z,13.15
2017-11-24T05:28:35.681Z,4.95
2017-11-24T05:31:03.303Z,4.78
2017-11-24T05:33:30.810Z,7.00
2017-11-24T05:35:58.370Z,6.32
2017-11-24T05:38:25.831Z,6.97
2017-11-24T05:40:54.312Z,7.45
2017-11-24T05:43:22.561Z,6.65
2017-11-24T05:45:51.558Z,7.93
2017-11-24T05:48:19.023Z,9.38
2017-11-24T05:50:46.592Z,8.23
2017-11-24T05:53:14.853Z,7.80
2017-11-24T05:55:42.419Z,10.00
2017-11-24T05:58:12.326Z,6.07
2017-11-24T06:00:39.808Z,10.95
2017-11-24T06:03:08.051Z,11.40
2017-11-24T06:05:35.526Z,10.68
2017-11-24T06:08:03.771Z,6.03
2017-11-24T06:10:31.243Z,8.25
2017-11-24T06:12:58.807Z,7.90
2017-11-24T06:15:26.272Z,6.93
2017-11-24T06:17:53.743Z,10.38
2017-11-24T06:20:22.003Z,6.55
2017-11-24T06:22:50.256Z,8.25
2017-11-24T06:25:17.720Z,8.52
2017-11-24T06:27:45.223Z,9.88
2017-11-24T06:30:12.737Z,8.40
2017-11-24T06:32:40.231Z,5.30
2017-11-24T06:35:07.703Z,6.93
2017-11-24T06:37:35.212Z,7.47
2017-11-24T06:40:02.686Z,7.90
2017-11-24T06:42:30.930Z,7.62
2017-11-24T06:44:58.498Z,9.60
2017-11-24T06:47:26.067Z,8.07
2017-11-24T06:49:53.552Z,10.57
2017-11-24T06:52:21.774Z,9.70
2017-11-24T06:54:49.353Z,7.05
2017-11-24T06:57:16.924Z,11.52
2017-11-24T06:59:44.411Z,13.50
2017-11-24T07:02:12.887Z,8.20
2017-11-24T07:04:40.358Z,10.40
2017-11-24T07:07:07.829Z,11.82
2017-11-24T07:09:35.414Z,6.35
2017-11-24T07:12:02.999Z,6.37
2017-11-24T07:14:31.234Z,11.45
2017-11-24T07:16:58.705Z,10.95
2017-11-24T07:19:26.174Z,7.40
2017-11-24T07:21:53.650Z,11.18
2017-11-24T07:24:21.887Z,11.30
2017-11-24T07:26:49.464Z,10.75
2017-11-24T07:29:16.942Z,11.05
2017-11-24T07:31:45.187Z,7.90
2017-11-24T07:34:12.666Z,15.63
2017-11-24T07:36:40.903Z,16.02
2017-11-24T07:39:08.375Z,9.25
2017-11-24T07:41:35.953Z,13.25
2017-11-24T07:44:04.203Z,5.75
2017-11-24T07:46:31.693Z,5.72
2017-11-24T07:48:59.927Z,9.25
2017-11-24T07:51:27.399Z,12.77
2017-11-24T07:53:54.985Z,14.43
2017-11-24T07:56:23.227Z,11.18
2017-11-24T07:58:50.711Z,9.98
2017-11-24T08:01:18.977Z,12.57
2017-11-24T08:03:46.547Z,10.60
2017-11-24T08:06:14.800Z,6.03
2017-11-24T08:08:42.275Z,7.50
2017-11-24T08:11:10.533Z,10.80
2017-11-24T08:13:38.062Z,12.45
2017-11-24T08:16:05.536Z,9.73
2017-11-24T08:18:33.124Z,7.15
2017-11-24T08:21:01.362Z,5.70
2017-11-24T08:23:29.010Z,9.63
2017-11-24T08:25:56.475Z,9.23
2017-11-24T08:28:23.947Z,7.20
2017-11-24T08:30:51.427Z,8.20
2017-11-24T08:33:18.975Z,6.28
2017-11-24T08:35:46.472Z,4.80
2017-11-24T08:38:13.935Z,7.23
2017-11-24T08:40:41.470Z,6.23
2017-11-24T08:43:09.707Z,6.35
2017-11-24T08:45:37.200Z,8.85
2017-11-24T08:48:11.294Z,11.20
2017-11-24T08:50:38.781Z,13.97
2017-11-24T08:53:06.264Z,7.00
2017-11-24T08:55:33.735Z,7.83
2017-11-24T08:58:01.199Z,7.40
2017-11-24T09:00:28.678Z,6.60
2017-11-24T09:02:57.648Z,8.30
2017-11-24T09:05:25.142Z,26.90
2017-11-24T09:07:52.604Z,5.73
2017-11-24T09:10:20.835Z,10.60
2017-11-24T09:12:48.309Z,18.40
2017-11-24T09:15:15.873Z,11.53
2017-11-24T09:17:43.329Z,7.37
2017-11-24T09:20:10.800Z,7.07
2017-11-24T09:22:38.351Z,6.83
2017-11-24T09:25:05.906Z,4.80
2017-11-24T09:27:33.421Z,4.60
2017-11-24T09:30:00.882Z,7.57
2017-11-24T09:32:28.443Z,6.10
2017-11-24T09:34:55.910Z,4.50
2017-11-24T09:37:23.412Z,8.73
2017-11-24T09:39:51.639Z,10.33
2017-11-24T09:42:19.238Z,6.20
2017-11-24T09:44:46.708Z,7.60
2017-11-24T09:47:15.025Z,4.50
2017-11-24T09:49:42.497Z,8.27
2017-11-24T09:52:09.981Z,7.20
2017-11-24T09:54:37.543Z,5.73
2017-11-24T09:57:05.015Z,5.07
2017-11-24T09:59:33.334Z,7.90
2017-11-24T10:02:00.806Z,4.33
2017-11-24T10:04:28.306Z,12.10
2017-11-24T10:06:56.573Z,10.27
2017-11-24T10:09:24.047Z,4.80
2017-11-24T10:11:52.288Z,5.47
2017-11-24T10:14:19.750Z,11.03
2017-11-24T10:16:48.082Z,4.80
2017-11-24T10:19:15.553Z,9.70
2017-11-24T10:24:41.896Z,8.07
2017-11-24T10:27:09.352Z,6.43
2017-11-24T10:29:36.944Z,6.37
2017-11-24T10:32:04.420Z,4.17
2017-11-24T10:34:31.870Z,5.20
2017-11-24T10:37:00.111Z,3.30
2017-11-24T10:39:27.655Z,5.20
2017-11-24T10:41:55.127Z,6.40
2017-11-24T10:44:22.620Z,6.00
2017-11-24T10:46:50.070Z,10.67
2017-11-24T10:49:17.539Z,7.13
2017-11-24T10:51:45.774Z,4.13
2017-11-24T10:54:13.242Z,6.10
2017-11-24T10:56:40.738Z,10.73
2017-11-24T10:59:08.990Z,8.20
2017-11-24T11:01:36.459Z,3.13
2017-11-24T11:04:04.693Z,9.77
2017-11-24T11:06:32.174Z,5.53
2017-11-24T11:08:59.643Z,5.80
2017-11-24T11:11:27.098Z,7.10
2017-11-24T11:13:55.329Z,4.17
2017-11-24T11:16:22.787Z,5.20
2017-11-24T11:18:50.257Z,8.07
2017-11-24T11:21:17.767Z,6.10
2017-11-24T11:23:45.293Z,8.90
2017-11-24T11:26:12.754Z,8.83
2017-11-24T11:28:40.312Z,3.67
2017-11-24T11:31:07.779Z,7.00
2017-11-24T11:33:36.017Z,5.47
2017-11-24T11:36:03.503Z,6.77
2017-11-24T11:38:30.983Z,7.77
2017-11-24T11:40:59.290Z,4.53
2017-11-24T11:43:26.784Z,6.33
2017-11-24T11:45:54.712Z,3.83
2017-11-24T11:48:22.179Z,4.53
2017-11-24T11:50:49.790Z,7.63
2017-11-24T11:53:17.404Z,3.93
2017-11-24T11:55:44.987Z,6.27
2017-11-24T11:58:12.541Z,8.00
2017-11-24T12:00:40.053Z,6.67
2017-11-24T12:03:07.623Z,7.53
2017-11-24T12:05:35.125Z,8.03
2017-11-24T12:08:02.744Z,5.47
2017-11-24T12:10:30.507Z,7.50
2017-11-24T12:12:57.976Z,7.13
2017-11-24T12:15:25.592Z,11.77
2017-11-24T12:17:53.089Z,3.73
2017-11-24T12:20:20.636Z,7.70
2017-11-24T12:22:48.194Z,5.90
2017-11-24T12:25:15.722Z,9.53
2017-11-24T12:27:43.355Z,7.33
2017-11-24T12:30:10.859Z,5.40
2017-11-24T12:32:38.326Z,5.70
2017-11-24T12:35:05.795Z,10.53
2017-11-24T12:37:33.389Z,7.07
2017-11-24T12:40:01.643Z,13.57
2017-11-24T12:42:29.106Z,5.20
2017-11-24T12:44:56.576Z,10.43
2017-11-24T12:47:24.123Z,18.60
2017-11-24T12:49:51.580Z,6.77
2017-11-24T12:52:19.047Z,6.57
2017-11-24T12:54:46.547Z,3.93
2017-11-24T12:57:14.061Z,4.80
2017-11-24T12:59:41.551Z,11.03
2017-11-24T13:02:09.773Z,9.60
2017-11-24T13:04:37.254Z,7.20
2017-11-24T13:07:04.736Z,3.33
2017-11-24T13:09:32.971Z,6.03
2017-11-24T13:12:00.430Z,3.20
2017-11-24T13:14:27.899Z,2.60
2017-11-24T13:16:55.427Z,1.50
2017-11-24T13:19:23.026Z,1.67
2017-11-24T13:21:51.350Z,3.23
2017-11-24T13:24:18.894Z,3.67
2017-11-24T13:26:46.429Z,1.63
2017-11-24T13:29:14.722Z,2.30
2017-11-24T13:31:42.301Z,1.90
2017-11-24T13:34:09.769Z,2.60
2017-11-24T13:36:37.242Z,1.77
2017-11-24T13:39:06.411Z,2.00
2017-11-24T13:41:33.903Z,1.93
2017-11-24T13:44:01.372Z,2.50
2017-11-24T13:46:29.618Z,2.60
2017-11-24T13:48:57.091Z,3.67
2017-11-24T13:51:24.625Z,2.17
2017-11-24T13:53:52.123Z,1.83
2017-11-24T13:56:19.612Z,1.80
2017-11-24T13:58:47.071Z,2.50
2017-11-24T14:01:14.602Z,2.10
2017-11-24T14:03:42.926Z,3.35
2017-11-24T14:06:10.468Z,2.95
2017-11-24T14:08:37.938Z,2.35
2017-11-24T14:11:05.454Z,3.47
2017-11-24T14:13:33.697Z,4.72
2017-11-24T14:16:01.176Z,2.70
2017-11-24T14:18:28.660Z,3.92
2017-11-24T14:20:56.184Z,5.28
2017-11-24T14:23:23.657Z,2.92
2017-11-24T14:25:51.987Z,3.22
2017-11-24T14:28:20.263Z,4.87
2017-11-24T14:30:47.737Z,3.08
2017-11-24T14:33:15.205Z,4.45
2017-11-24T14:35:42.775Z,4.55
2017-11-24T14:38:11.011Z,6.00
2017-11-24T14:40:38.490Z,16.62
2017-11-24T14:43:06.067Z,9.13
2017-11-24T14:45:34.304Z,8.90
2017-11-24T14:48:01.859Z,8.57
2017-11-24T14:50:29.322Z,5.22
2017-11-24T14:52:56.810Z,8.15
2017-11-24T14:55:24.374Z,6.87
2017-11-24T14:57:51.935Z,12.05
2017-11-24T15:00:20.212Z,7.90
2017-11-24T15:02:48.439Z,8.30
2017-11-24T15:05:15.914Z,8.10
2017-11-24T15:07:43.397Z,11.85
2017-11-24T15:10:11.626Z,10.02
2017-11-24T15:12:39.085Z,7.78
2017-11-24T15:15:06.579Z,8.40
2017-11-24T15:17:34.160Z,10.90
2017-11-24T15:20:02.489Z,8.10
2017-11-24T15:22:30.080Z,8.90
2017-11-24T15:24:57.630Z,8.40
2017-11-24T15:27:25.114Z,11.95
2017-11-24T15:29:52.596Z,6.00
2017-11-24T15:32:20.080Z,9.23
2017-11-24T15:34:47.542Z,10.65
2017-11-24T15:37:15.039Z,15.13
2017-11-24T15:39:42.502Z,9.68
2017-11-24T15:42:10.752Z,9.80
2017-11-24T15:44:38.979Z,11.32
2017-11-24T15:47:06.451Z,10.98
2017-11-24T15:49:33.934Z,6.65
2017-11-24T15:52:01.394Z,14.85
2017-11-24T15:54:28.865Z,14.30
2017-11-24T15:56:57.098Z,10.63
2017-11-24T15:59:24.579Z,5.40
2017-11-24T16:01:52.044Z,6.50
2017-11-24T16:04:19.544Z,5.95
2017-11-24T16:06:47.109Z,5.35
2017-11-24T16:09:14.615Z,9.57
2017-11-24T16:11:42.082Z,8.63
2017-11-24T16:14:10.315Z,12.88
2017-11-24T16:16:37.806Z,10.15
2017-11-24T16:19:05.362Z,8.43
2017-11-24T16:21:32.831Z,6.25
2017-11-24T16:24:00.290Z,7.45
2017-11-24T16:26:28.655Z,10.20
2017-11-24T16:28:56.123Z,7.05
2017-11-24T16:31:24.381Z,10.20
2017-11-24T16:33:51.940Z,6.20
2017-11-24T16:36:19.517Z,10.13
2017-11-24T16:38:47.795Z,8.10
2017-11-24T16:41:16.051Z,8.48
2017-11-24T16:43:43.515Z,7.82
2017-11-24T16:46:11.061Z,12.93
2017-11-24T16:48:38.526Z,7.30
2017-11-24T16:51:05.984Z,8.80
2017-11-24T16:53:33.598Z,8.15
2017-11-24T16:56:01.056Z,6.03
2017-11-24T16:58:28.524Z,8.18
2017-11-24T17:00:56.009Z,8.85
2017-11-24T17:03:24.986Z,12.57
2017-11-24T17:05:52.463Z,4.35
2017-11-24T17:08:19.936Z,6.95
2017-11-24T17:10:48.162Z,8.55
2017-11-24T17:13:15.647Z,10.07
2017-11-24T17:15:43.104Z,8.98
2017-11-24T17:18:10.550Z,6.87
2017-11-24T17:20:38.128Z,5.85
2017-11-24T17:23:05.678Z,6.12
2017-11-24T17:25:33.148Z,9.48
2017-11-24T17:28:00.701Z,10.18
2017-11-24T17:30:29.670Z,8.15
2017-11-24T17:32:57.143Z,6.95
2017-11-24T17:35:24.656Z,8.00
2017-11-24T17:37:52.170Z,5.47
2017-11-24T17:40:19.632Z,4.35
2017-11-24T17:42:47.859Z,7.72
2017-11-24T17:45:15.328Z,8.05
2017-11-24T17:47:42.965Z,4.40
2017-11-24T17:50:10.420Z,8.32
2017-11-24T17:52:37.886Z,5.40
2017-11-24T17:55:05.379Z,6.97
2017-11-24T17:57:32.849Z,6.62
2017-11-24T18:00:01.115Z,9.18
2017-11-24T18:02:28.569Z,8.00
2017-11-24T18:04:56.027Z,9.38
2017-11-24T18:07:23.483Z,10.43
2017-11-24T18:09:50.936Z,6.22
2017-11-24T18:12:18.418Z,17.33
2017-11-24T18:14:46.645Z,10.45
2017-11-24T18:17:14.123Z,12.30
2017-11-24T18:19:41.683Z,9.45
2017-11-24T18:22:09.138Z,11.15
2017-11-24T18:24:36.603Z,10.38
2017-11-24T18:27:04.844Z,6.87
2017-11-24T18:29:32.331Z,10.98
2017-11-24T18:31:59.786Z,9.30
2017-11-24T18:34:27.241Z,9.50
2017-11-24T18:36:54.690Z,8.77
2017-11-24T18:39:22.171Z,12.30
2017-11-24T18:41:49.614Z,11.98
2017-11-24T18:44:17.099Z,21.85
2017-11-24T18:46:45.310Z,11.82
2017-11-24T18:49:12.854Z,9.05
2017-11-24T18:51:40.318Z,10.60
2017-11-24T18:54:07.778Z,13.57
2017-11-24T18:56:35.280Z,12.73
2017-11-24T18:59:02.726Z,10.20
2017-11-24T19:01:30.201Z,11.82
2017-11-24T19:03:58.435Z,11.43
2017-11-24T19:06:25.898Z,11.75
2017-11-24T19:08:53.360Z,19.90
2017-11-24T19:11:20.826Z,11.40
2017-11-24T19:13:48.288Z,19.62
2017-11-24T19:16:15.768Z,12.23
2017-11-24T19:18:44.005Z,13.30
2017-11-24T19:21:11.468Z,11.88
2017-11-24T19:23:39.031Z,15.27
2017-11-24T19:26:06.502Z,18.15
2017-11-24T19:28:34.776Z,14.95
2017-11-24T19:31:02.225Z,13.20
2017-11-24T19:33:29.682Z,10.52
2017-11-24T19:35:57.141Z,12.23
2017-11-24T19:38:24.622Z,10.10
2017-11-24T19:40:52.845Z,10.68
2017-11-24T19:43:20.518Z,11.30
2017-11-24T19:45:48.088Z,12.93
2017-11-24T19:48:15.640Z,16.60
2017-11-24T19:50:43.117Z,17.48
2017-11-24T19:53:11.380Z,14.60
2017-11-24T19:55:38.838Z,17.42
2017-11-24T19:58:06.307Z,16.80
2017-11-24T20:00:34.540Z,15.23
2017-11-24T20:03:01.994Z,14.73
2017-11-24T20:05:29.471Z,20.65
2017-11-24T20:07:57.094Z,14.32
2017-11-24T20:10:24.594Z,16.90
2017-11-24T20:12:52.354Z,16.35
2017-11-24T20:15:19.816Z,14.40
2017-11-24T20:17:47.328Z,17.55
2017-11-24T20:20:14.887Z,20.58
2017-11-24T20:22:42.381Z,16.17
2017-11-24T20:25:09.885Z,18.50
2017-11-24T20:27:37.367Z,18.00
2017-11-24T20:30:04.918Z,20.65
2017-11-24T20:32:32.402Z,18.80
2017-11-24T20:34:59.873Z,15.82
2017-11-24T20:37:27.339Z,22.40
2017-11-24T20:39:54.885Z,26.65
2017-11-24T20:42:22.460Z,16.73
2017-11-24T20:44:50.202Z,20.92
2017-11-24T20:47:17.656Z,21.50
2017-11-24T20:49:45.119Z,15.68
2017-11-24T20:52:12.688Z,18.02
2017-11-24T20:54:40.422Z,17.77
2017-11-24T20:57:07.887Z,22.95
2017-11-24T20:59:35.421Z,24.83
2017-11-24T21:02:02.985Z,22.95
2017-11-24T21:04:30.462Z,21.92
2017-11-24T21:06:57.956Z,20.45
2017-11-24T21:09:26.193Z,24.37
2017-11-24T21:11:53.662Z,21.52
2017-11-24T21:14:21.122Z,19.20
2017-11-24T21:16:48.682Z,22.33
2017-11-24T21:19:17.061Z,17.25
2017-11-24T21:21:44.677Z,22.42
2017-11-24T21:24:12.218Z,18.25
2017-11-24T21:26:39.704Z,24.25
2017-11-24T21:29:07.168Z,20.70
2017-11-24T21:31:34.633Z,20.35
2017-11-24T21:34:02.270Z,19.80
2017-11-24T21:36:29.999Z,21.00
2017-11-24T21:38:58.250Z,27.55
2017-11-24T21:41:25.820Z,19.27
2017-11-24T21:43:53.279Z,20.95
2017-11-24T21:46:21.513Z,19.40
2017-11-24T21:48:48.989Z,21.23
2017-11-24T21:51:16.559Z,19.10
2017-11-24T21:53:44.026Z,17.00
2017-11-24T21:56:12.292Z,22.27
2017-11-24T21:58:39.760Z,23.17
2017-11-24T22:01:08.159Z,24.85
2017-11-24T22:03:35.635Z,20.60
2017-11-24T22:06:03.094Z,19.80
2017-11-24T22:08:30.567Z,18.85
2017-11-24T22:10:58.124Z,21.62
2017-11-24T22:13:25.649Z,21.95
2017-11-24T22:15:53.118Z,22.42
2017-11-24T22:18:20.631Z,18.50
2017-11-24T22:20:48.138Z,19.90
2017-11-24T22:23:15.590Z,15.93
2017-11-24T22:25:43.097Z,22.77
2017-11-24T22:28:10.558Z,21.30
2017-11-24T22:30:38.035Z,23.15
2017-11-24T22:33:06.352Z,27.77
2017-11-24T22:35:33.825Z,31.42
2017-11-24T22:38:01.288Z,28.00
2017-11-24T22:40:28.786Z,21.23
2017-11-24T22:42:57.034Z,22.70
2017-11-24T22:45:24.506Z,21.50
2017-11-24T22:47:52.757Z,21.75
2017-11-24T22:50:20.230Z,21.70
2017-11-24T22:52:47.690Z,20.15
2017-11-24T22:55:15.152Z,18.35
2017-11-24T22:57:43.379Z,18.92
2017-11-24T23:00:10.853Z,22.90
2017-11-24T23:02:38.325Z,21.40
2017-11-24T23:05:05.794Z,19.40
2017-11-24T23:07:34.112Z,16.75
2017-11-24T23:10:01.571Z,16.20
2017-11-24T23:12:29.053Z,18.77
2017-11-24T23:14:56.529Z,21.55
2017-11-24T23:17:24.078Z,17.35
2017-11-24T23:19:51.537Z,18.12
2017-11-24T23:22:19.101Z,19.73
2017-11-24T23:24:46.573Z,22.25
2017-11-24T23:27:14.833Z,22.92
2017-11-24T23:29:42.307Z,18.98
2017-11-24T23:32:10.543Z,20.05
2017-11-24T23:34:38.006Z,24.27
2017-11-24T23:37:05.470Z,22.80
2017-11-24T23:39:33.042Z,23.65
2017-11-24T23:42:00.594Z,21.52
2017-11-24T23:44:28.151Z,22.25
2017-11-24T23:46:55.644Z,25.60
2017-11-24T23:49:23.900Z,22.87
2017-11-24T23:51:51.377Z,26.75
2017-11-24T23:54:18.851Z,20.20
2017-11-24T23:56:46.333Z,22.37
2017-11-24T23:59:13.823Z,20.75
